Latest Coastal Weather Observations for Darwin Airport

IDD60701

Issued at 7:11 am CST Saturday 1 August 2015 (issued every 10 minutes, with the page automatically refreshed every 10 minutes)

About coastal observations | Map of coastal stations | Coastal observations for NT | Marine services | Other Formats
Station Details ID: 014015 Name: DARWIN AIRPORT Lat: -12.42 Lon: 130.89 Height: 30.4 m
Data from the previous 72 hours. | See also: Recent months at Darwin Airport
Date/Time
CST
Temp

°C
Wind Pressure Rain
since 9am
mm
Weather Cloud Vis
km
Sea
Height
m
Swell
Dir
 
Speed
knots
Gust
knots
hPa Trend Height
m
Period
s
Dir
01/07:00am 21.5 ESE 5 6 1015.0 - 0.0 - - 10 - - - -
01/06:30am 21.0 E 6 7 1014.7 - 0.0 - - 10 - - - -
01/06:00am 21.7 ESE 4 5 1014.3 F 0.0 Fine Mostly clear 30 - - - -
01/05:30am 21.0 ESE 7 7 1014.4 - 0.0 - Mostly clear 10 - - - -
01/05:00am 21.3 SE 5 6 1014.4 - 0.0 - Mostly clear 10 - - - -
01/04:30am 21.9 ESE 4 5 1014.4 - 0.0 - Mostly clear 10 - - - -
01/04:00am 22.6 SE 5 6 1014.3 - 0.0 - Mostly clear 10 - - - -
01/03:30am 22.8 ESE 6 7 1014.3 - 0.0 - Mostly clear 10 - - - -
01/03:00am 21.8 ESE 5 6 1014.3 R 0.0 Fine Partly cloudy 30 - - - -
01/02:30am 21.5 SE 4 4 1014.5 - 0.0 - Partly cloudy 10 - - - -
01/02:00am 21.6 SE 4 5 1014.6 - 0.0 - - 10 - - - -
01/01:30am 21.9 SSE 5 6 1014.6 - 0.0 - - 10 - - - -
01/01:00am 22.9 SSE 5 6 1014.7 - 0.0 - - 10 - - - -
01/12:30am 23.3 S 5 6 1014.7 - 0.0 - - 10 - - - -
01/12:00am 23.7 S 6 8 1014.7 R 0.0 Smoke Clear 10 - - - -
 
Date/Time
CST
Temp

°C
Wind Pressure Rain
since 9am
mm
Weather Cloud Vis
km
Sea
Height
m
Swell
Dir
 
Speed
knots
Gust
knots
hPa Trend Height
m
Period
s
Dir
31/11:30pm 23.9 S 6 7 1014.5 - 0.0 - - 10 - - - -
31/11:00pm 24.2 S 3 7 1014.3 - 0.0 - - 10 - - - -
31/10:30pm 24.6 NNE 4 5 1014.1 - 0.0 - - 10 - - - -
31/10:00pm 24.6 N 6 8 1013.4 - 0.0 - - 10 - - - -
31/09:30pm 24.7 NNE 8 10 1013.3 - 0.0 - - 10 - - - -
31/09:00pm 24.9 NNE 8 10 1013.2 R 0.0 Smoke Clear 30 - - - -
31/08:30pm 25.3 NNE 9 11 1013.0 - 0.0 - - 10 - - - -
31/08:00pm 25.7 NNE 8 10 1012.8 - 0.0 - - 10 - - - -
31/07:30pm 26.3 NNE 10 15 1012.6 - 0.0 - - 10 - - - -
31/07:00pm 26.9 NNE 12 16 1012.3 - 0.0 - Partly cloudy 10 - - - -
31/06:30pm 27.5 NNE 11 15 1012.0 - 0.0 - - 10 - - - -
31/06:00pm 28.4 N 12 16 1011.4 F 0.0 Smoke Mostly clear 25 - - - -
31/05:30pm 29.7 N 13 16 1011.5 - 0.0 - - 10 - - - -
31/05:00pm 31.1 NNE 13 18 1011.2 - 0.0 - - 10 - - - -
31/04:30pm 31.3 NNE 13 18 1011.2 - 0.0 - - 10 - - - -
31/04:00pm 31.9 NNE 13 15 1011.1 - 0.0 - - 10 - - - -
31/03:30pm 32.0 NNE 12 18 1011.4 - 0.0 - - 10 - - - -
31/03:00pm 31.8 NE 15 23 1011.5 F 0.0 Smoke Mostly clear 30 - - - -
31/02:30pm 31.9 ENE 15 22 1012.2 - 0.0 - - 10 - - - -
31/02:00pm 31.7 NE 13 20 1012.6 - 0.0 - - 10 - - - -
31/01:45pm 31.0 E 15 27 1012.9 - 0.0 - - 10 - - - -
31/01:30pm 31.5 NE 15 20 1013.2 - 0.0 - - 10 - - - -
31/01:00pm 31.0 E 17 22 1013.9 - 0.0 - - 10 - - - -
31/12:30pm 30.5 NE 16 22 1014.4 - 0.0 - - 10 - - - -
31/12:00pm 30.1 E 17 22 1014.7 F 0.0 Fine Mostly clear 30 - - - -
31/11:30am 29.9 E 15 19 1015.4 - 0.0 - - 10 - - - -
31/11:00am 28.9 E 15 21 1015.9 - 0.0 - - 10 - - - -
31/10:30am 28.2 ENE 13 19 1016.2 - 0.0 - - 10 - - - -
31/10:00am 26.9 ENE 13 17 1016.3 - 0.0 - - 10 - - - -
31/09:30am 26.1 ENE 13 16 1016.5 - 0.0 - - 10 - - - -
31/09:00am 25.0 E 10 13 1016.1 F 0.0 Fine Mostly clear 30 - - - -
31/08:30am 23.9 E 7 11 1016.1 - 0.0 - - 10 - - - -
31/08:00am 21.8 E 4 5 1015.9 - 0.0 - - 10 - - - -
31/07:30am 20.2 E 4 5 1015.8 - 0.0 Fog patches - 10 - - - -
31/07:00am 20.1 ESE 6 6 1015.7 - 0.0 Fog patches - 10 - - - -
31/06:30am 20.2 ESE 6 7 1015.5 - 0.0 - - 10 - - - -
31/06:00am 19.0 E 5 6 1014.9 F 0.0 Smoke Clear 25 - - - -
31/05:30am 19.4 ENE 4 5 1015.0 - 0.0 - - 10 - - - -
31/05:00am 19.3 ENE 5 6 1015.0 - 0.0 - - 10 - - - -
31/04:30am 19.7 E 4 5 1015.1 - 0.0 - - 10 - - - -
31/04:00am 19.4 NE 4 4 1015.1 - 0.0 - - 10 - - - -
31/03:30am 19.8 NE 3 4 1015.2 - 0.0 - - 10 - - - -
31/03:00am 20.2 ENE 4 5 1015.0 F 0.0 Smoke Mostly clear 30 - - - -
31/02:30am 20.4 NE 4 4 1015.3 - 0.0 - - 10 - - - -
31/02:00am 20.7 ENE 4 5 1015.4 - 0.0 - - 10 - - - -
31/01:30am 21.3 SE 3 4 1015.5 - 0.0 - - 10 - - - -
31/01:00am 22.1 E 4 6 1015.8 - 0.0 - Partly cloudy 10 - - - -
31/12:30am 23.3 SSE 6 7 1015.9 - 0.0 - Partly cloudy 10 - - - -
31/12:00am 24.0 S 7 9 1015.8 R 0.0 Smoke Partly cloudy 30 - - - -
 
Date/Time
CST
Temp

°C
Wind Pressure Rain
since 9am
mm
Weather Cloud Vis
km
Sea
Height
m
Swell
Dir
 
Speed
knots
Gust
knots
hPa Trend Height
m
Period
s
Dir
30/11:30pm 24.1 S 6 7 1016.3 - 0.0 - Partly cloudy 10 - - - -
30/11:00pm 24.2 S 6 7 1016.2 - 0.0 - Partly cloudy 10 - - - -
30/10:30pm 24.4 S 6 8 1016.1 - 0.0 - Partly cloudy 10 - - - -
30/10:00pm 24.4 S 6 6 1016.0 - 0.0 - Partly cloudy 10 - - - -
30/09:30pm 25.0 SSW 6 7 1015.8 - 0.0 - Partly cloudy 10 - - - -
30/09:00pm 25.0 SSW 6 7 1015.2 R 0.0 Smoke Mostly clear 30 - - - -
30/08:30pm 25.1 WSW 5 6 1014.9 - 0.0 - Partly cloudy 10 - - - -
30/08:00pm 25.2 NNE 6 7 1014.2 - 0.0 - - 10 - - - -
30/07:30pm 25.8 NNE 6 8 1013.8 - 0.0 - - 10 - - - -
30/07:00pm 26.3 NNE 8 10 1013.5 - 0.0 - - 10 - - - -
30/06:30pm 27.6 NNE 8 11 1013.2 - 0.0 - - 10 - - - -
30/06:00pm 28.5 NNE 9 11 1012.8 F 0.0 Smoke Mostly clear 30 - - - -
30/05:30pm 29.0 N 10 13 1012.8 - 0.0 - - 10 - - - -
30/05:00pm 29.7 NNE 10 14 1012.6 - 0.0 - - 10 - - - -
30/04:30pm 30.4 NNE 12 15 1012.5 - 0.0 - - 10 - - - -
30/04:00pm 30.7 NNE 13 17 1012.5 - 0.0 - Partly cloudy 10 - - - -
30/03:30pm 32.5 NNE 15 19 1012.7 - 0.0 - - 10 - - - -
30/03:00pm 31.2 NNE 14 18 1012.9 F 0.0 Smoke Mostly clear 25 - - - -
30/02:30pm 32.4 ENE 8 11 1013.6 - 0.0 - - 10 - - - -
30/02:00pm 31.9 E 11 15 1014.1 - 0.0 - - 10 - - - -
30/01:30pm 31.4 ENE 13 20 1014.8 - 0.0 - - 10 - - - -
30/01:00pm 31.0 ENE 14 20 1015.2 - 0.0 - - 10 - - - -
30/12:30pm 31.6 ENE 15 21 1015.7 - 0.0 - - 10 - - - -
30/12:00pm 30.3 E 18 22 1016.2 R 0.0 Fine Clear 30 - - - -
30/11:30am 30.3 E 18 24 1016.5 - 0.0 - - 10 - - - -
30/11:00am 29.0 ESE 17 22 1016.9 - 0.0 - - 10 - - - -
30/10:30am 28.3 E 20 25 1017.0 - 0.0 - - 10 - - - -
30/10:00am 27.3 E 17 22 1017.1 - 0.0 - - 10 - - - -
30/09:30am 26.3 ESE 15 20 1017.0 - 0.0 - - 10 - - - -
30/09:00am 25.5 ESE 11 16 1016.8 F 0.0 Smoke Clear 20 - - - -
30/08:30am 24.3 ESE 11 15 1016.8 - 0.0 - - 10 - - - -
30/08:00am 22.9 E 8 10 1016.7 - 0.0 - - 10 - - - -
30/07:30am 22.0 ESE 10 13 1016.5 - 0.0 - - 10 - - - -
30/07:00am 21.6 E 9 10 1016.4 - 0.0 - - 10 - - - -
30/06:30am 21.8 E 9 11 1016.1 - 0.0 - - 10 - - - -
30/06:00am 21.9 E 8 10 1015.7 F 0.0 Smoke Clear 25 - - - -
30/05:30am 22.0 E 9 11 1015.8 - 0.0 - - 10 - - - -
30/05:00am 22.5 E 9 10 1015.7 - 0.0 - - 10 - - - -
30/04:30am 22.6 ENE 9 10 1015.7 - 0.0 - - 10 - - - -
30/04:00am 22.2 ENE 9 10 1015.8 - 0.0 - - 10 - - - -
30/03:30am 21.1 ENE 8 9 1016.1 - 0.0 - - 10 - - - -
30/03:00am 20.5 NE 5 6 1016.1 R 0.0 Fine Clear 30 - - - -
30/02:30am 20.7 NE 6 7 1016.5 - 0.0 - - 10 - - - -
30/02:00am 21.2 ENE 7 10 1016.7 - 0.0 - - 10 - - - -
30/01:30am 20.6 SE 4 5 1016.7 - 0.0 - - 10 - - - -
30/01:00am 20.6 SSE 4 5 1016.8 - 0.0 - - 10 - - - -
30/12:30am 21.0 SSE 4 5 1016.7 - 0.0 - - 10 - - - -
30/12:00am 21.5 S 4 5 1016.5 F 0.0 Fine Clear 30 - - - -
 
Date/Time
CST
Temp

°C
Wind Pressure Rain
since 9am
mm
Weather Cloud Vis
km
Sea
Height
m
Swell
Dir
 
Speed
knots
Gust
knots
hPa Trend Height
m
Period
s
Dir
29/11:30pm 22.8 SSW 5 6 1016.8 - 0.0 - - 10 - - - -
29/11:00pm 23.2 SSW 6 7 1016.7 - 0.0 - - 10 - - - -
29/10:30pm 23.4 SSW 6 7 1016.8 - 0.0 - - 10 - - - -
29/10:00pm 23.5 SSW 7 9 1016.7 - 0.0 - - 10 - - - -
29/09:30pm 23.7 SW 5 6 1016.6 - 0.0 - - 10 - - - -
29/09:00pm 24.1 SSW 5 6 1016.1 R 0.0 Smoke Clear 30 - - - -
29/08:30pm 24.3 SW 6 7 1016.0 - 0.0 - - 10 - - - -
29/08:00pm 24.6 W 6 7 1015.7 - 0.0 - - 10 - - - -
29/07:30pm 25.1 W 6 8 1015.3 - 0.0 - - 10 - - - -
29/07:00pm 26.1 WNW 5 7 1014.9 - 0.0 - - 10 - - - -
29/06:30pm 26.6 NW 7 8 1014.6 - 0.0 - - 10 - - - -
29/06:00pm 27.3 NW 8 9 1014.2 R 0.0 Smoke Clear 30 - - - -
29/05:30pm 27.9 NW 9 11 1014.0 - 0.0 - - 10 - - - -
29/05:00pm 28.8 NNW 9 10 1013.7 - 0.0 - - 10 - - - -
29/04:30pm 28.7 NW 11 15 1013.7 - 0.0 - - 10 - - - -
29/04:00pm 31.9 WNW 12 16 1013.7 - 0.0 - - 10 - - - -
29/03:30pm 32.1 E 11 17 1013.7 - 0.0 - - 10 - - - -
29/03:00pm 31.7 E 14 18 1014.0 S 0.0 Smoke Clear 30 - - - -
29/02:30pm 31.8 E 13 20 1014.3 - 0.0 - - 10 - - - -
29/02:00pm 31.0 ESE 15 21 1014.8 - 0.0 - - 10 - - - -
29/01:30pm 31.2 E 14 21 1015.1 - 0.0 - - 10 - - - -
29/01:00pm 30.1 ESE 16 22 1015.8 - 0.0 - - 10 - - - -
29/12:30pm 30.2 ESE 17 22 1016.3 - 0.0 - - 10 - - - -
29/12:00pm 29.6 E 16 25 1016.8 F 0.0 Smoke Mostly clear 30 - - - -
29/11:30am 28.2 ESE 16 21 1017.4 - 0.0 - - 10 - - - -
29/11:00am 27.8 ESE 18 24 1017.9 - 0.0 - - 10 - - - -
29/10:30am 26.6 ESE 16 22 1018.0 - 0.0 - - 10 - - - -
29/10:00am 26.0 SE 14 19 1018.2 - 0.0 - - 10 - - - -
29/09:30am 24.9 SE 13 19 1018.3 - 0.0 - - 10 - - - -
29/09:00am 23.3 SE 13 16 1018.2 R 0.0 Fine Mostly clear 30 - - - -
29/08:30am 22.1 SE 12 16 1018.0 - 0.0 - - 10 - - - -
29/08:00am 21.2 SE 10 14 1017.6 - 0.0 - - 10 - - - -
29/07:30am 20.4 SE 9 10 1017.4 - 0.0 - - 10 - - - -

Other Formats:

Comma delimited format used in spreadsheet applications
http://www.bom.gov.au/fwo/IDD60701/IDD60701.94120.axf

JavaScript Object Notation format (JSON) in row-major order
http://www.bom.gov.au/fwo/IDD60701/IDD60701.94120.json